sensor_id;sensor_type;location;lat;lon;timestamp;temperature;humidity
24772;DHT22;12870;52.274;9.754;2022-11-15T00:00:24;8.90;99.90
24772;DHT22;12870;52.274;9.754;2022-11-15T00:02:49;9.00;99.90
24772;DHT22;12870;52.274;9.754;2022-11-15T00:05:15;8.90;99.90
24772;DHT22;12870;52.274;9.754;2022-11-15T00:07:41;8.90;99.90
24772;DHT22;12870;52.274;9.754;2022-11-15T00:10:07;9.00;99.90
24772;DHT22;12870;52.274;9.754;2022-11-15T00:12:32;8.90;99.90
24772;DHT22;12870;52.274;9.754;2022-11-15T00:14:58;9.00;99.90
24772;DHT22;12870;52.274;9.754;2022-11-15T00:17:24;9.00;99.90
24772;DHT22;12870;52.274;9.754;2022-11-15T00:19:49;9.00;99.90
24772;DHT22;12870;52.274;9.754;2022-11-15T00:22:15;9.00;99.90
24772;DHT22;12870;52.274;9.754;2022-11-15T00:24:40;9.10;99.90
24772;DHT22;12870;52.274;9.754;2022-11-15T00:27:06;9.00;99.90
24772;DHT22;12870;52.274;9.754;2022-11-15T00:29:32;9.10;99.90
24772;DHT22;12870;52.274;9.754;2022-11-15T00:31:57;9.10;99.90
24772;DHT22;12870;52.274;9.754;2022-11-15T00:34:23;9.10;99.90
24772;DHT22;12870;52.274;9.754;2022-11-15T00:36:48;9.20;99.90
24772;DHT22;12870;52.274;9.754;2022-11-15T00:39:14;9.30;99.90
24772;DHT22;12870;52.274;9.754;2022-11-15T00:41:40;9.40;99.90
24772;DHT22;12870;52.274;9.754;2022-11-15T00:44:05;9.50;99.90
24772;DHT22;12870;52.274;9.754;2022-11-15T00:46:31;9.50;99.90
24772;DHT22;12870;52.274;9.754;2022-11-15T00:48:57;9.60;99.90
24772;DHT22;12870;52.274;9.754;2022-11-15T00:51:22;9.70;99.90
24772;DHT22;12870;52.274;9.754;2022-11-15T00:53:48;9.70;99.90
24772;DHT22;12870;52.274;9.754;2022-11-15T00:56:14;9.70;99.90
24772;DHT22;12870;52.274;9.754;2022-11-15T00:58:39;9.70;99.90
24772;DHT22;12870;52.274;9.754;2022-11-15T01:01:07;9.70;99.90
24772;DHT22;12870;52.274;9.754;2022-11-15T01:03:34;9.70;99.90
24772;DHT22;12870;52.274;9.754;2022-11-15T01:06:00;9.70;99.90
24772;DHT22;12870;52.274;9.754;2022-11-15T01:08:26;9.70;99.90
24772;DHT22;12870;52.274;9.754;2022-11-15T01:10:52;9.70;99.90
24772;DHT22;12870;52.274;9.754;2022-11-15T01:13:17;9.60;99.90
24772;DHT22;12870;52.274;9.754;2022-11-15T01:15:43;9.60;99.90
24772;DHT22;12870;52.274;9.754;2022-11-15T01:18:09;9.60;99.90
24772;DHT22;12870;52.274;9.754;2022-11-15T01:20:38;9.70;99.90
24772;DHT22;12870;52.274;9.754;2022-11-15T01:23:04;9.70;99.90
24772;DHT22;12870;52.274;9.754;2022-11-15T01:25:30;9.70;99.90
24772;DHT22;12870;52.274;9.754;2022-11-15T01:27:55;9.70;99.90
24772;DHT22;12870;52.274;9.754;2022-11-15T01:30:21;9.80;99.90
24772;DHT22;12870;52.274;9.754;2022-11-15T01:32:46;9.70;99.90
24772;DHT22;12870;52.274;9.754;2022-11-15T01:35:12;9.70;99.90
24772;DHT22;12870;52.274;9.754;2022-11-15T01:37:38;9.70;99.90
24772;DHT22;12870;52.274;9.754;2022-11-15T01:40:04;9.60;99.90
24772;DHT22;12870;52.274;9.754;2022-11-15T01:42:30;9.60;99.90
24772;DHT22;12870;52.274;9.754;2022-11-15T01:44:55;9.60;99.90
24772;DHT22;12870;52.274;9.754;2022-11-15T01:47:28;9.50;99.90
24772;DHT22;12870;52.274;9.754;2022-11-15T01:50:04;9.40;99.90
24772;DHT22;12870;52.274;9.754;2022-11-15T01:52:33;9.40;99.90
24772;DHT22;12870;52.274;9.754;2022-11-15T01:57:28;9.30;99.90
24772;DHT22;12870;52.274;9.754;2022-11-15T01:59:54;9.40;99.90
24772;DHT22;12870;52.274;9.754;2022-11-15T02:02:21;9.40;99.90
24772;DHT22;12870;52.274;9.754;2022-11-15T02:04:47;9.50;99.90
24772;DHT22;12870;52.274;9.754;2022-11-15T02:07:16;9.60;99.90
24772;DHT22;12870;52.274;9.754;2022-11-15T02:09:43;9.70;99.90
24772;DHT22;12870;52.274;9.754;2022-11-15T02:12:10;9.80;99.90
24772;DHT22;12870;52.274;9.754;2022-11-15T02:14:40;9.90;99.90
24772;DHT22;12870;52.274;9.754;2022-11-15T02:20:14;10.20;99.90
24772;DHT22;12870;52.274;9.754;2022-11-15T02:37:32;10.80;99.90
24772;DHT22;12870;52.274;9.754;2022-11-15T02:40:56;10.90;99.90
24772;DHT22;12870;52.274;9.754;2022-11-15T02:43:19;11.10;99.90
24772;DHT22;12870;52.274;9.754;2022-11-15T02:46:15;11.20;99.90
24772;DHT22;12870;52.274;9.754;2022-11-15T02:48:43;11.20;99.90
24772;DHT22;12870;52.274;9.754;2022-11-15T02:51:10;11.30;99.90
24772;DHT22;12870;52.274;9.754;2022-11-15T02:53:37;11.30;99.90
24772;DHT22;12870;52.274;9.754;2022-11-15T02:56:03;11.40;99.90
24772;DHT22;12870;52.274;9.754;2022-11-15T02:58:57;11.40;99.90
24772;DHT22;12870;52.274;9.754;2022-11-15T03:01:37;11.50;99.90
24772;DHT22;12870;52.274;9.754;2022-11-15T03:09:51;11.60;99.90
24772;DHT22;12870;52.274;9.754;2022-11-15T03:12:34;11.70;99.90
24772;DHT22;12870;52.274;9.754;2022-11-15T03:15:53;11.70;99.90
24772;DHT22;12870;52.274;9.754;2022-11-15T03:17:59;11.70;99.90
24772;DHT22;12870;52.274;9.754;2022-11-15T03:20:26;11.80;99.90
24772;DHT22;12870;52.274;9.754;2022-11-15T03:22:55;11.80;99.90
24772;DHT22;12870;52.274;9.754;2022-11-15T03:25:24;11.80;99.90
24772;DHT22;12870;52.274;9.754;2022-11-15T03:27:54;11.80;99.90
24772;DHT22;12870;52.274;9.754;2022-11-15T03:30:21;11.80;99.90
24772;DHT22;12870;52.274;9.754;2022-11-15T03:32:58;11.80;99.90
24772;DHT22;12870;52.274;9.754;2022-11-15T03:35:27;11.80;99.90
24772;DHT22;12870;52.274;9.754;2022-11-15T03:38:20;11.90;99.90
24772;DHT22;12870;52.274;9.754;2022-11-15T03:41:01;11.90;99.90
24772;DHT22;12870;52.274;9.754;2022-11-15T03:46:16;11.90;99.90
24772;DHT22;12870;52.274;9.754;2022-11-15T03:49:10;11.90;99.90
24772;DHT22;12870;52.274;9.754;2022-11-15T03:51:34;11.80;99.90
24772;DHT22;12870;52.274;9.754;2022-11-15T03:54:03;11.80;99.90
24772;DHT22;12870;52.274;9.754;2022-11-15T03:56:29;11.80;99.90
24772;DHT22;12870;52.274;9.754;2022-11-15T03:58:55;11.80;99.90
24772;DHT22;12870;52.274;9.754;2022-11-15T04:01:20;11.70;99.90
24772;DHT22;12870;52.274;9.754;2022-11-15T04:03:46;11.80;99.90
24772;DHT22;12870;52.274;9.754;2022-11-15T04:06:12;11.70;99.90
24772;DHT22;12870;52.274;9.754;2022-11-15T04:08:37;11.80;99.90
24772;DHT22;12870;52.274;9.754;2022-11-15T04:11:03;11.80;99.90
24772;DHT22;12870;52.274;9.754;2022-11-15T04:13:28;11.80;99.90
24772;DHT22;12870;52.274;9.754;2022-11-15T04:15:54;11.80;99.90
24772;DHT22;12870;52.274;9.754;2022-11-15T04:18:20;11.80;99.90
24772;DHT22;12870;52.274;9.754;2022-11-15T04:20:45;11.80;99.90
24772;DHT22;12870;52.274;9.754;2022-11-15T04:23:29;11.80;99.90
24772;DHT22;12870;52.274;9.754;2022-11-15T04:26:19;11.80;99.90
24772;DHT22;12870;52.274;9.754;2022-11-15T04:28:46;11.70;99.90
24772;DHT22;12870;52.274;9.754;2022-11-15T04:31:30;11.70;99.90
24772;DHT22;12870;52.274;9.754;2022-11-15T04:33:56;11.70;99.90
24772;DHT22;12870;52.274;9.754;2022-11-15T04:36:22;11.70;99.90
24772;DHT22;12870;52.274;9.754;2022-11-15T04:39:06;11.70;99.90
24772;DHT22;12870;52.274;9.754;2022-11-15T04:41:32;11.70;99.90
24772;DHT22;12870;52.274;9.754;2022-11-15T04:43:57;11.70;99.90
24772;DHT22;12870;52.274;9.754;2022-11-15T04:46:24;11.80;99.90
24772;DHT22;12870;52.274;9.754;2022-11-15T04:48:50;11.80;99.90
24772;DHT22;12870;52.274;9.754;2022-11-15T04:51:16;11.70;99.90
24772;DHT22;12870;52.274;9.754;2022-11-15T04:53:42;11.80;99.90
24772;DHT22;12870;52.274;9.754;2022-11-15T04:56:08;11.70;99.90
24772;DHT22;12870;52.274;9.754;2022-11-15T04:58:34;11.70;99.90
24772;DHT22;12870;52.274;9.754;2022-11-15T05:01:07;11.70;99.90
24772;DHT22;12870;52.274;9.754;2022-11-15T05:03:33;11.70;99.90
24772;DHT22;12870;52.274;9.754;2022-11-15T05:06:17;11.60;99.90
24772;DHT22;12870;52.274;9.754;2022-11-15T05:08:43;11.60;99.90
24772;DHT22;12870;52.274;9.754;2022-11-15T05:11:08;11.50;99.90
24772;DHT22;12870;52.274;9.754;2022-11-15T05:13:34;11.50;99.90
24772;DHT22;12870;52.274;9.754;2022-11-15T05:16:00;11.40;99.90
24772;DHT22;12870;52.274;9.754;2022-11-15T05:18:25;11.40;99.90
24772;DHT22;12870;52.274;9.754;2022-11-15T05:20:51;11.30;99.90
24772;DHT22;12870;52.274;9.754;2022-11-15T05:23:17;11.30;99.90
24772;DHT22;12870;52.274;9.754;2022-11-15T05:25:42;11.20;99.90
24772;DHT22;12870;52.274;9.754;2022-11-15T05:28:08;11.10;99.90
24772;DHT22;12870;52.274;9.754;2022-11-15T05:30:34;11.00;99.90
24772;DHT22;12870;52.274;9.754;2022-11-15T05:33:00;11.00;99.90
24772;DHT22;12870;52.274;9.754;2022-11-15T05:35:39;10.90;99.90
24772;DHT22;12870;52.274;9.754;2022-11-15T05:38:05;10.90;99.90
24772;DHT22;12870;52.274;9.754;2022-11-15T05:40:32;10.90;99.90
24772;DHT22;12870;52.274;9.754;2022-11-15T05:42:59;10.90;99.90
24772;DHT22;12870;52.274;9.754;2022-11-15T05:45:26;10.80;99.90
24772;DHT22;12870;52.274;9.754;2022-11-15T05:47:52;10.80;99.90
24772;DHT22;12870;52.274;9.754;2022-11-15T05:50:19;10.80;99.90
24772;DHT22;12870;52.274;9.754;2022-11-15T05:52:46;10.80;99.90
24772;DHT22;12870;52.274;9.754;2022-11-15T05:55:12;10.80;99.90
24772;DHT22;12870;52.274;9.754;2022-11-15T05:57:38;10.80;99.90
24772;DHT22;12870;52.274;9.754;2022-11-15T06:00:05;10.70;99.90
24772;DHT22;12870;52.274;9.754;2022-11-15T06:02:30;10.70;99.90
24772;DHT22;12870;52.274;9.754;2022-11-15T06:04:56;10.60;99.90
24772;DHT22;12870;52.274;9.754;2022-11-15T06:07:22;10.60;99.90
24772;DHT22;12870;52.274;9.754;2022-11-15T06:09:47;10.60;99.90
24772;DHT22;12870;52.274;9.754;2022-11-15T06:12:13;10.40;99.90
24772;DHT22;12870;52.274;9.754;2022-11-15T06:14:39;10.40;99.90
24772;DHT22;12870;52.274;9.754;2022-11-15T06:17:06;10.20;99.90
24772;DHT22;12870;52.274;9.754;2022-11-15T06:19:31;10.20;99.90
24772;DHT22;12870;52.274;9.754;2022-11-15T06:22:01;10.00;99.90
24772;DHT22;12870;52.274;9.754;2022-11-15T06:24:27;9.90;99.90
24772;DHT22;12870;52.274;9.754;2022-11-15T06:26:53;9.80;99.90
24772;DHT22;12870;52.274;9.754;2022-11-15T06:29:18;9.70;99.90
24772;DHT22;12870;52.274;9.754;2022-11-15T06:31:44;9.60;99.90
24772;DHT22;12870;52.274;9.754;2022-11-15T06:34:10;9.50;99.90
24772;DHT22;12870;52.274;9.754;2022-11-15T06:36:36;9.50;99.90
24772;DHT22;12870;52.274;9.754;2022-11-15T06:39:05;9.40;99.90
24772;DHT22;12870;52.274;9.754;2022-11-15T06:41:33;9.40;99.90
24772;DHT22;12870;52.274;9.754;2022-11-15T06:43:58;9.40;99.90
24772;DHT22;12870;52.274;9.754;2022-11-15T06:46:24;9.40;99.90
24772;DHT22;12870;52.274;9.754;2022-11-15T06:48:53;9.30;99.90
24772;DHT22;12870;52.274;9.754;2022-11-15T06:51:20;9.30;99.90
24772;DHT22;12870;52.274;9.754;2022-11-15T06:53:45;9.30;99.90
24772;DHT22;12870;52.274;9.754;2022-11-15T06:56:11;9.30;99.90
24772;DHT22;12870;52.274;9.754;2022-11-15T06:58:37;9.30;99.90
24772;DHT22;12870;52.274;9.754;2022-11-15T07:01:05;9.40;99.90
24772;DHT22;12870;52.274;9.754;2022-11-15T07:03:34;9.50;99.90
24772;DHT22;12870;52.274;9.754;2022-11-15T07:06:01;9.50;99.90
24772;DHT22;12870;52.274;9.754;2022-11-15T07:08:28;9.50;99.90
24772;DHT22;12870;52.274;9.754;2022-11-15T07:10:57;9.60;99.90
24772;DHT22;12870;52.274;9.754;2022-11-15T07:13:27;9.60;99.90
24772;DHT22;12870;52.274;9.754;2022-11-15T07:15:53;9.70;99.90
24772;DHT22;12870;52.274;9.754;2022-11-15T07:18:19;9.60;99.90
24772;DHT22;12870;52.274;9.754;2022-11-15T07:20:45;9.60;99.90
24772;DHT22;12870;52.274;9.754;2022-11-15T07:23:10;9.60;99.90
24772;DHT22;12870;52.274;9.754;2022-11-15T07:25:36;9.60;99.90
24772;DHT22;12870;52.274;9.754;2022-11-15T07:28:02;9.50;99.90
24772;DHT22;12870;52.274;9.754;2022-11-15T07:30:28;9.50;99.90
24772;DHT22;12870;52.274;9.754;2022-11-15T07:32:58;9.50;99.90
24772;DHT22;12870;52.274;9.754;2022-11-15T07:35:25;9.50;99.90
24772;DHT22;12870;52.274;9.754;2022-11-15T07:37:59;9.60;99.90
24772;DHT22;12870;52.274;9.754;2022-11-15T07:40:26;9.60;99.90
24772;DHT22;12870;52.274;9.754;2022-11-15T07:42:51;9.60;99.90
24772;DHT22;12870;52.274;9.754;2022-11-15T07:45:22;9.50;99.90
24772;DHT22;12870;52.274;9.754;2022-11-15T07:47:49;9.50;99.90
24772;DHT22;12870;52.274;9.754;2022-11-15T07:50:16;9.50;99.90
24772;DHT22;12870;52.274;9.754;2022-11-15T07:52:42;9.50;99.90
24772;DHT22;12870;52.274;9.754;2022-11-15T07:55:08;9.50;99.90
24772;DHT22;12870;52.274;9.754;2022-11-15T07:57:34;9.50;99.90
24772;DHT22;12870;52.274;9.754;2022-11-15T08:00:00;9.60;99.90
24772;DHT22;12870;52.274;9.754;2022-11-15T08:02:25;9.60;99.90
24772;DHT22;12870;52.274;9.754;2022-11-15T08:04:51;9.60;99.90
24772;DHT22;12870;52.274;9.754;2022-11-15T08:07:19;9.60;99.90
24772;DHT22;12870;52.274;9.754;2022-11-15T08:09:45;9.60;99.90
24772;DHT22;12870;52.274;9.754;2022-11-15T08:12:11;9.60;99.90
24772;DHT22;12870;52.274;9.754;2022-11-15T08:14:36;9.70;99.90
24772;DHT22;12870;52.274;9.754;2022-11-15T08:17:02;9.80;99.90
24772;DHT22;12870;52.274;9.754;2022-11-15T08:19:28;9.80;99.90
24772;DHT22;12870;52.274;9.754;2022-11-15T08:21:53;9.90;99.90
24772;DHT22;12870;52.274;9.754;2022-11-15T08:24:19;10.10;99.90
24772;DHT22;12870;52.274;9.754;2022-11-15T08:26:45;10.20;99.90
24772;DHT22;12870;52.274;9.754;2022-11-15T08:29:11;10.30;99.90
24772;DHT22;12870;52.274;9.754;2022-11-15T08:31:37;10.40;99.90
24772;DHT22;12870;52.274;9.754;2022-11-15T08:34:03;10.40;99.90
24772;DHT22;12870;52.274;9.754;2022-11-15T08:36:29;10.50;99.90
24772;DHT22;12870;52.274;9.754;2022-11-15T08:38:55;10.60;99.90
24772;DHT22;12870;52.274;9.754;2022-11-15T08:41:30;10.70;99.90
24772;DHT22;12870;52.274;9.754;2022-11-15T08:43:56;10.80;99.90
24772;DHT22;12870;52.274;9.754;2022-11-15T08:46:22;10.90;99.90
24772;DHT22;12870;52.274;9.754;2022-11-15T08:48:47;11.00;99.90
24772;DHT22;12870;52.274;9.754;2022-11-15T08:51:13;11.10;99.90
24772;DHT22;12870;52.274;9.754;2022-11-15T08:53:39;11.20;99.90
24772;DHT22;12870;52.274;9.754;2022-11-15T08:56:09;11.30;99.90
24772;DHT22;12870;52.274;9.754;2022-11-15T08:58:36;11.40;99.90
24772;DHT22;12870;52.274;9.754;2022-11-15T09:01:02;11.50;99.90
24772;DHT22;12870;52.274;9.754;2022-11-15T09:03:28;11.60;99.90
24772;DHT22;12870;52.274;9.754;2022-11-15T09:05:58;11.70;99.90
24772;DHT22;12870;52.274;9.754;2022-11-15T09:08:25;11.80;99.90
24772;DHT22;12870;52.274;9.754;2022-11-15T09:10:51;11.90;99.90
24772;DHT22;12870;52.274;9.754;2022-11-15T09:13:17;12.00;99.90
24772;DHT22;12870;52.274;9.754;2022-11-15T09:15:43;12.10;99.90
24772;DHT22;12870;52.274;9.754;2022-11-15T09:18:08;12.20;99.90
24772;DHT22;12870;52.274;9.754;2022-11-15T09:20:34;12.30;99.90
24772;DHT22;12870;52.274;9.754;2022-11-15T09:23:03;12.40;99.90
24772;DHT22;12870;52.274;9.754;2022-11-15T09:25:29;12.40;99.90
24772;DHT22;12870;52.274;9.754;2022-11-15T09:27:55;12.40;99.90
24772;DHT22;12870;52.274;9.754;2022-11-15T09:30:22;12.40;99.90
24772;DHT22;12870;52.274;9.754;2022-11-15T09:32:48;12.50;99.90
24772;DHT22;12870;52.274;9.754;2022-11-15T09:35:14;12.50;99.90
24772;DHT22;12870;52.274;9.754;2022-11-15T09:37:40;12.60;99.90
24772;DHT22;12870;52.274;9.754;2022-11-15T09:40:11;12.60;99.90
24772;DHT22;12870;52.274;9.754;2022-11-15T09:45:45;12.80;99.90
24772;DHT22;12870;52.274;9.754;2022-11-15T09:51:03;13.10;99.90
24772;DHT22;12870;52.274;9.754;2022-11-15T09:53:32;13.30;99.90
24772;DHT22;12870;52.274;9.754;2022-11-15T09:56:03;13.40;99.90
24772;DHT22;12870;52.274;9.754;2022-11-15T10:01:19;13.70;99.90
24772;DHT22;12870;52.274;9.754;2022-11-15T10:03:48;13.80;99.90
24772;DHT22;12870;52.274;9.754;2022-11-15T10:06:23;13.90;99.90
24772;DHT22;12870;52.274;9.754;2022-11-15T10:09:12;14.00;99.90
24772;DHT22;12870;52.274;9.754;2022-11-15T10:11:39;14.20;99.90
24772;DHT22;12870;52.274;9.754;2022-11-15T10:14:18;14.50;99.90
24772;DHT22;12870;52.274;9.754;2022-11-15T10:19:50;15.40;99.90
24772;DHT22;12870;52.274;9.754;2022-11-15T10:24:46;17.10;99.90
24772;DHT22;12870;52.274;9.754;2022-11-15T10:27:18;18.10;99.90
24772;DHT22;12870;52.274;9.754;2022-11-15T10:29:48;18.80;99.90
24772;DHT22;12870;52.274;9.754;2022-11-15T10:32:17;19.00;99.90
24772;DHT22;12870;52.274;9.754;2022-11-15T10:34:43;19.20;99.90
24772;DHT22;12870;52.274;9.754;2022-11-15T10:37:09;19.30;99.90
24772;DHT22;12870;52.274;9.754;2022-11-15T10:39:35;19.80;99.90
24772;DHT22;12870;52.274;9.754;2022-11-15T10:44:43;21.00;99.90
24772;DHT22;12870;52.274;9.754;2022-11-15T10:47:30;21.70;99.90
24772;DHT22;12870;52.274;9.754;2022-11-15T10:50:01;22.40;99.90
24772;DHT22;12870;52.274;9.754;2022-11-15T10:52:28;22.80;99.90
24772;DHT22;12870;52.274;9.754;2022-11-15T10:57:32;23.60;99.90
24772;DHT22;12870;52.274;9.754;2022-11-15T11:00:26;24.00;99.90
24772;DHT22;12870;52.274;9.754;2022-11-15T11:08:02;23.70;98.80
24772;DHT22;12870;52.274;9.754;2022-11-15T11:10:29;22.70;99.90
24772;DHT22;12870;52.274;9.754;2022-11-15T11:12:55;21.80;99.90
24772;DHT22;12870;52.274;9.754;2022-11-15T11:15:23;21.10;99.90
24772;DHT22;12870;52.274;9.754;2022-11-15T11:18:10;20.80;99.90
24772;DHT22;12870;52.274;9.754;2022-11-15T11:20:48;21.40;99.90
24772;DHT22;12870;52.274;9.754;2022-11-15T11:29:22;22.60;99.90
24772;DHT22;12870;52.274;9.754;2022-11-15T11:32:10;22.80;99.90
24772;DHT22;12870;52.274;9.754;2022-11-15T11:37:36;23.30;99.90
24772;DHT22;12870;52.274;9.754;2022-11-15T11:48:39;22.50;99.90
24772;DHT22;12870;52.274;9.754;2022-11-15T11:51:23;22.00;99.90
24772;DHT22;12870;52.274;9.754;2022-11-15T11:53:55;21.40;99.90
24772;DHT22;12870;52.274;9.754;2022-11-15T11:58:48;20.10;99.90
24772;DHT22;12870;52.274;9.754;2022-11-15T12:01:25;19.60;99.90
24772;DHT22;12870;52.274;9.754;2022-11-15T12:06:45;18.80;99.90
24772;DHT22;12870;52.274;9.754;2022-11-15T12:14:51;18.10;99.90
24772;DHT22;12870;52.274;9.754;2022-11-15T12:17:24;18.10;99.90
24772;DHT22;12870;52.274;9.754;2022-11-15T12:19:55;18.20;99.90
24772;DHT22;12870;52.274;9.754;2022-11-15T12:22:36;18.30;99.90
24772;DHT22;12870;52.274;9.754;2022-11-15T12:25:50;18.30;99.90
24772;DHT22;12870;52.274;9.754;2022-11-15T12:28:01;18.20;99.90
24772;DHT22;12870;52.274;9.754;2022-11-15T12:30:52;18.20;99.90
24772;DHT22;12870;52.274;9.754;2022-11-15T12:36:01;18.00;99.90
24772;DHT22;12870;52.274;9.754;2022-11-15T12:41:17;17.50;99.90
24772;DHT22;12870;52.274;9.754;2022-11-15T12:43:45;17.40;99.90
24772;DHT22;12870;52.274;9.754;2022-11-15T12:46:20;17.40;99.90
24772;DHT22;12870;52.274;9.754;2022-11-15T12:51:12;17.40;99.90
24772;DHT22;12870;52.274;9.754;2022-11-15T12:53:38;17.40;99.90
24772;DHT22;12870;52.274;9.754;2022-11-15T12:58:56;17.70;99.90
24772;DHT22;12870;52.274;9.754;2022-11-15T13:04:23;18.50;99.90
24772;DHT22;12870;52.274;9.754;2022-11-15T13:06:54;18.70;99.90
24772;DHT22;12870;52.274;9.754;2022-11-15T13:15:00;19.40;99.90
24772;DHT22;12870;52.274;9.754;2022-11-15T13:17:33;19.50;99.90
24772;DHT22;12870;52.274;9.754;2022-11-15T13:20:01;19.50;99.90
24772;DHT22;12870;52.274;9.754;2022-11-15T13:27:50;20.10;99.90
24772;DHT22;12870;52.274;9.754;2022-11-15T13:30:25;20.50;99.90
24772;DHT22;12870;52.274;9.754;2022-11-15T13:32:52;20.80;99.90
24772;DHT22;12870;52.274;9.754;2022-11-15T13:35:26;21.00;99.90
24772;DHT22;12870;52.274;9.754;2022-11-15T13:37:54;21.40;99.90
24772;DHT22;12870;52.274;9.754;2022-11-15T13:40:29;21.50;99.90
24772;DHT22;12870;52.274;9.754;2022-11-15T13:42:58;21.70;99.90
24772;DHT22;12870;52.274;9.754;2022-11-15T13:45:24;21.60;99.90
24772;DHT22;12870;52.274;9.754;2022-11-15T13:47:54;21.40;99.90
24772;DHT22;12870;52.274;9.754;2022-11-15T13:50:22;21.20;99.90
24772;DHT22;12870;52.274;9.754;2022-11-15T13:52:50;21.00;99.90
24772;DHT22;12870;52.274;9.754;2022-11-15T13:55:20;20.80;99.90
24772;DHT22;12870;52.274;9.754;2022-11-15T13:58:01;20.40;99.90
24772;DHT22;12870;52.274;9.754;2022-11-15T14:00:42;20.00;99.90
24772;DHT22;12870;52.274;9.754;2022-11-15T14:03:28;19.70;99.90
24772;DHT22;12870;52.274;9.754;2022-11-15T14:08:26;19.60;99.90
24772;DHT22;12870;52.274;9.754;2022-11-15T14:13:33;19.30;99.90
24772;DHT22;12870;52.274;9.754;2022-11-15T14:16:18;19.10;99.90
24772;DHT22;12870;52.274;9.754;2022-11-15T14:21:12;18.10;99.90
24772;DHT22;12870;52.274;9.754;2022-11-15T14:23:38;17.70;99.90
24772;DHT22;12870;52.274;9.754;2022-11-15T14:26:03;17.20;99.90
24772;DHT22;12870;52.274;9.754;2022-11-15T14:28:33;16.80;99.90
24772;DHT22;12870;52.274;9.754;2022-11-15T14:31:10;16.50;99.90
24772;DHT22;12870;52.274;9.754;2022-11-15T14:33:37;16.20;99.90
24772;DHT22;12870;52.274;9.754;2022-11-15T14:36:22;15.90;99.90
24772;DHT22;12870;52.274;9.754;2022-11-15T14:38:48;15.70;99.90
24772;DHT22;12870;52.274;9.754;2022-11-15T14:41:22;15.50;99.90
24772;DHT22;12870;52.274;9.754;2022-11-15T14:43:49;15.40;99.90
24772;DHT22;12870;52.274;9.754;2022-11-15T14:46:14;15.40;99.90
24772;DHT22;12870;52.274;9.754;2022-11-15T14:48:40;15.30;99.90
24772;DHT22;12870;52.274;9.754;2022-11-15T14:51:13;15.20;99.90
24772;DHT22;12870;52.274;9.754;2022-11-15T14:53:41;15.20;99.90
24772;DHT22;12870;52.274;9.754;2022-11-15T14:56:07;15.10;99.90
24772;DHT22;12870;52.274;9.754;2022-11-15T14:58:32;15.00;99.90
24772;DHT22;12870;52.274;9.754;2022-11-15T15:00:58;14.90;99.90
24772;DHT22;12870;52.274;9.754;2022-11-15T15:03:25;14.90;99.90
24772;DHT22;12870;52.274;9.754;2022-11-15T15:05:51;14.90;99.90
24772;DHT22;12870;52.274;9.754;2022-11-15T15:08:16;14.80;99.90
24772;DHT22;12870;52.274;9.754;2022-11-15T15:10:44;14.80;99.90
24772;DHT22;12870;52.274;9.754;2022-11-15T15:13:18;14.70;99.90
24772;DHT22;12870;52.274;9.754;2022-11-15T15:15:44;14.70;99.90
24772;DHT22;12870;52.274;9.754;2022-11-15T15:18:09;14.60;99.90
24772;DHT22;12870;52.274;9.754;2022-11-15T15:20:38;14.60;99.90
24772;DHT22;12870;52.274;9.754;2022-11-15T15:23:04;14.60;99.90
24772;DHT22;12870;52.274;9.754;2022-11-15T15:25:30;14.60;99.90
24772;DHT22;12870;52.274;9.754;2022-11-15T15:27:57;14.50;99.90
24772;DHT22;12870;52.274;9.754;2022-11-15T15:30:24;14.50;99.90
24772;DHT22;12870;52.274;9.754;2022-11-15T15:32:50;14.50;99.90
24772;DHT22;12870;52.274;9.754;2022-11-15T15:35:17;14.40;99.90
24772;DHT22;12870;52.274;9.754;2022-11-15T15:37:44;14.40;99.90
24772;DHT22;12870;52.274;9.754;2022-11-15T15:42:37;14.30;99.90
24772;DHT22;12870;52.274;9.754;2022-11-15T15:45:03;14.30;99.90
24772;DHT22;12870;52.274;9.754;2022-11-15T15:47:29;14.30;99.90
24772;DHT22;12870;52.274;9.754;2022-11-15T15:49:55;14.30;99.90
24772;DHT22;12870;52.274;9.754;2022-11-15T15:52:20;14.20;99.90
24772;DHT22;12870;52.274;9.754;2022-11-15T15:54:46;14.20;99.90
24772;DHT22;12870;52.274;9.754;2022-11-15T15:57:13;14.20;99.90
24772;DHT22;12870;52.274;9.754;2022-11-15T15:59:38;14.10;99.90
24772;DHT22;12870;52.274;9.754;2022-11-15T16:02:04;14.10;99.90
24772;DHT22;12870;52.274;9.754;2022-11-15T16:04:30;14.10;99.90
24772;DHT22;12870;52.274;9.754;2022-11-15T16:07:02;14.10;99.90
24772;DHT22;12870;52.274;9.754;2022-11-15T16:09:28;14.00;99.90
24772;DHT22;12870;52.274;9.754;2022-11-15T16:12:12;14.00;99.90
24772;DHT22;12870;52.274;9.754;2022-11-15T16:14:38;14.00;99.90
24772;DHT22;12870;52.274;9.754;2022-11-15T16:17:04;14.00;99.90
24772;DHT22;12870;52.274;9.754;2022-11-15T16:19:30;14.00;99.90
24772;DHT22;12870;52.274;9.754;2022-11-15T16:21:56;14.00;99.90
24772;DHT22;12870;52.274;9.754;2022-11-15T16:24:22;14.00;99.90
24772;DHT22;12870;52.274;9.754;2022-11-15T16:26:48;14.00;99.90
24772;DHT22;12870;52.274;9.754;2022-11-15T16:29:15;13.90;99.90
24772;DHT22;12870;52.274;9.754;2022-11-15T16:31:40;13.90;99.90
24772;DHT22;12870;52.274;9.754;2022-11-15T16:34:08;13.90;99.90
24772;DHT22;12870;52.274;9.754;2022-11-15T16:36:34;13.80;99.90
24772;DHT22;12870;52.274;9.754;2022-11-15T16:39:00;13.80;99.90
24772;DHT22;12870;52.274;9.754;2022-11-15T16:41:29;13.80;99.90
24772;DHT22;12870;52.274;9.754;2022-11-15T16:43:55;13.80;99.90
24772;DHT22;12870;52.274;9.754;2022-11-15T16:46:23;13.80;99.90
24772;DHT22;12870;52.274;9.754;2022-11-15T16:48:49;13.70;99.90
24772;DHT22;12870;52.274;9.754;2022-11-15T16:51:15;13.70;99.90
24772;DHT22;12870;52.274;9.754;2022-11-15T16:53:41;13.60;99.90
24772;DHT22;12870;52.274;9.754;2022-11-15T16:56:23;13.60;99.90
24772;DHT22;12870;52.274;9.754;2022-11-15T16:58:50;13.50;99.90
24772;DHT22;12870;52.274;9.754;2022-11-15T17:01:18;13.40;99.90
24772;DHT22;12870;52.274;9.754;2022-11-15T17:03:44;13.30;99.90
24772;DHT22;12870;52.274;9.754;2022-11-15T17:06:10;13.30;99.90
24772;DHT22;12870;52.274;9.754;2022-11-15T17:08:37;13.20;99.90
24772;DHT22;12870;52.274;9.754;2022-11-15T17:11:09;13.20;99.90
24772;DHT22;12870;52.274;9.754;2022-11-15T17:13:36;13.10;99.90
24772;DHT22;12870;52.274;9.754;2022-11-15T17:16:10;13.10;99.90
24772;DHT22;12870;52.274;9.754;2022-11-15T17:18:36;13.00;99.90
24772;DHT22;12870;52.274;9.754;2022-11-15T17:21:14;12.90;99.90
24772;DHT22;12870;52.274;9.754;2022-11-15T17:23:40;12.80;99.90
24772;DHT22;12870;52.274;9.754;2022-11-15T17:26:06;12.80;99.90
24772;DHT22;12870;52.274;9.754;2022-11-15T17:28:32;12.70;99.90
24772;DHT22;12870;52.274;9.754;2022-11-15T17:30:58;12.70;99.90
24772;DHT22;12870;52.274;9.754;2022-11-15T17:33:25;12.60;99.90
24772;DHT22;12870;52.274;9.754;2022-11-15T17:36:02;12.60;99.90
24772;DHT22;12870;52.274;9.754;2022-11-15T17:38:28;12.60;99.90
24772;DHT22;12870;52.274;9.754;2022-11-15T17:41:11;12.60;99.90